Time;durP1;ratioP1;P1;durP2;ratioP2;P2;SDS_P1;SDS_P2;PMS_P1;PMS_P2;Temp;Humidity;BMP_temperature;BMP_pressure;BME280_temperature;BME280_humidity;BME280_pressure;Samples;Min_cycle;Max_cycle;Signal;HPM_P1;HPM_P2
2022/07/15 00:02:13;;;;;;;7.57;1.40;;;13.40;99.90;;;;;;5034970;28;20051;-68
2022/07/15 00:04:39;;;;;;;5.45;1.50;;;13.40;99.90;;;;;;5035763;28;20037;-68
2022/07/15 00:07:06;;;;;;;3.90;1.40;;;13.40;99.90;;;;;;5018882;28;20044;-68
2022/07/15 00:12:16;;;;;;;5.85;1.55;;;13.50;99.90;;;;;;5034945;28;20041;-68
2022/07/15 00:14:42;;;;;;;7.38;1.67;;;13.50;99.90;;;;;;5035810;28;20374;-68
2022/07/15 00:17:07;;;;;;;5.82;1.60;;;13.40;99.90;;;;;;5034867;28;20090;-68
2022/07/15 00:19:34;;;;;;;10.10;2.20;;;13.50;99.90;;;;;;5019135;28;20049;-68
2022/07/15 00:22:00;;;;;;;7.70;2.13;;;13.50;99.90;;;;;;5040376;28;20068;-68
2022/07/15 00:24:26;;;;;;;9.05;2.10;;;13.50;99.90;;;;;;5035912;28;20485;-68
2022/07/15 00:26:51;;;;;;;6.90;1.60;;;13.60;99.90;;;;;;5035494;28;20132;-68
2022/07/15 00:29:17;;;;;;;7.38;1.70;;;13.50;99.90;;;;;;5035496;28;20041;-68
2022/07/15 00:31:42;;;;;;;10.05;2.22;;;13.50;99.90;;;;;;5018214;28;20059;-68
2022/07/15 00:34:08;;;;;;;8.27;1.55;;;13.50;99.90;;;;;;5035264;28;20037;-68
2022/07/15 00:36:33;;;;;;;8.10;1.80;;;13.50;99.90;;;;;;5034692;28;20580;-67
2022/07/15 00:38:59;;;;;;;8.10;1.77;;;13.50;99.90;;;;;;5018951;28;20091;-68
2022/07/15 00:41:25;;;;;;;7.63;2.00;;;13.50;99.90;;;;;;5017839;28;20066;-68
2022/07/15 00:43:50;;;;;;;6.90;1.95;;;13.50;99.90;;;;;;5034729;28;20082;-68
2022/07/15 00:46:18;;;;;;;7.53;1.70;;;13.50;99.90;;;;;;5034121;28;20037;-68
2022/07/15 00:48:44;;;;;;;8.63;2.13;;;13.50;99.90;;;;;;5035309;28;20037;-68
2022/07/15 00:51:10;;;;;;;5.32;1.77;;;13.50;99.90;;;;;;5017600;28;20116;-68
2022/07/15 00:53:37;;;;;;;6.25;1.42;;;13.50;99.90;;;;;;5035262;28;20604;-68
2022/07/15 00:56:04;;;;;;;7.63;1.80;;;13.50;99.90;;;;;;5034178;28;20119;-68
2022/07/15 00:58:32;;;;;;;8.80;1.63;;;13.50;99.90;;;;;;5035637;28;20138;-68
2022/07/15 01:00:59;;;;;;;8.18;1.70;;;13.50;99.90;;;;;;5034116;28;20037;-68
2022/07/15 01:03:26;;;;;;;7.68;1.60;;;13.50;99.90;;;;;;5035209;28;20049;-68
2022/07/15 01:05:53;;;;;;;7.07;1.58;;;13.50;99.90;;;;;;5033999;28;20138;-68
2022/07/15 01:08:19;;;;;;;6.65;1.60;;;13.50;99.90;;;;;;5016034;28;20436;-68
2022/07/15 01:10:45;;;;;;;6.28;1.80;;;13.50;99.90;;;;;;5018001;28;20048;-68
2022/07/15 01:13:11;;;;;;;5.25;1.30;;;13.50;99.90;;;;;;5033639;28;20028;-68
2022/07/15 01:15:36;;;;;;;8.95;1.95;;;13.50;99.90;;;;;;5038164;28;20045;-68
2022/07/15 01:18:03;;;;;;;7.43;1.70;;;13.50;99.90;;;;;;5045933;28;20159;-67
2022/07/15 01:20:29;;;;;;;4.80;1.48;;;13.60;99.90;;;;;;5039210;28;20071;-68
2022/07/15 01:22:56;;;;;;;6.57;1.60;;;13.60;99.90;;;;;;5039022;28;20120;-68
2022/07/15 01:25:22;;;;;;;6.40;1.77;;;13.60;99.90;;;;;;5038024;28;20497;-68
2022/07/15 01:27:47;;;;;;;5.72;1.55;;;13.60;99.90;;;;;;5013780;28;20028;-68
2022/07/15 01:30:13;;;;;;;5.80;1.50;;;13.60;99.90;;;;;;5022294;28;20045;-67
2022/07/15 01:32:38;;;;;;;6.70;1.50;;;13.60;99.90;;;;;;5034619;28;20045;-68
2022/07/15 01:35:05;;;;;;;7.25;1.63;;;13.60;99.90;;;;;;5034694;28;20041;-68
2022/07/15 01:37:30;;;;;;;5.93;1.70;;;13.60;99.90;;;;;;5017382;28;20044;-69
2022/07/15 01:39:56;;;;;;;7.40;1.67;;;13.50;99.90;;;;;;5016312;28;20476;-68
2022/07/15 01:42:21;;;;;;;8.30;1.50;;;13.50;99.90;;;;;;5019105;28;20044;-68
2022/07/15 01:44:47;;;;;;;7.85;1.73;;;13.50;99.90;;;;;;5018821;28;20053;-68
2022/07/15 01:47:13;;;;;;;7.85;1.55;;;13.40;99.90;;;;;;5016103;28;20536;-68
2022/07/15 01:49:38;;;;;;;6.50;1.70;;;13.40;99.90;;;;;;5018138;28;20041;-68
2022/07/15 01:52:04;;;;;;;8.82;2.03;;;13.40;99.90;;;;;;5000573;28;20034;-68
2022/07/15 01:54:32;;;;;;;6.32;1.83;;;13.40;99.90;;;;;;5017608;28;20037;-68
2022/07/15 01:56:58;;;;;;;8.05;1.90;;;13.40;99.90;;;;;;5018643;28;20410;-68
2022/07/15 01:59:24;;;;;;;9.23;2.05;;;13.40;99.90;;;;;;5001836;28;20041;-68
2022/07/15 02:01:51;;;;;;;8.63;1.92;;;13.30;99.90;;;;;;5000709;28;20037;-68
2022/07/15 02:04:18;;;;;;;7.88;1.88;;;13.30;99.90;;;;;;5002295;28;20034;-68
2022/07/15 02:06:44;;;;;;;8.60;1.75;;;13.40;99.90;;;;;;5018075;28;20045;-68
2022/07/15 02:09:10;;;;;;;8.15;1.88;;;13.30;99.90;;;;;;5014620;28;20038;-68
2022/07/15 02:11:36;;;;;;;7.88;1.60;;;13.30;99.90;;;;;;5024547;28;20482;-68
2022/07/15 02:14:01;;;;;;;8.32;1.85;;;13.40;99.90;;;;;;5002149;28;20525;-68
2022/07/15 02:16:29;;;;;;;6.45;1.50;;;13.40;99.90;;;;;;5001861;28;20044;-68
2022/07/15 02:18:54;;;;;;;6.35;1.48;;;13.40;99.90;;;;;;5015196;28;20501;-68
2022/07/15 02:21:20;;;;;;;7.05;1.92;;;13.40;99.90;;;;;;5016948;28;20044;-68
2022/07/15 02:23:46;;;;;;;5.43;1.38;;;13.40;99.90;;;;;;5017446;28;20041;-68
2022/07/15 02:26:12;;;;;;;9.15;1.80;;;13.40;99.90;;;;;;5016170;28;20117;-68
2022/07/15 02:28:38;;;;;;;6.88;2.10;;;13.40;99.90;;;;;;4999721;28;20036;-68
2022/07/15 02:31:04;;;;;;;7.38;1.50;;;13.40;99.90;;;;;;5022811;28;20044;-68
2022/07/15 02:33:30;;;;;;;8.57;1.85;;;13.40;99.90;;;;;;5036653;28;20076;-68
2022/07/15 02:35:55;;;;;;;7.70;1.77;;;13.30;99.90;;;;;;5015549;28;20131;-68
2022/07/15 02:38:22;;;;;;;7.60;1.77;;;13.30;99.90;;;;;;5031093;28;20091;-68
2022/07/15 02:40:48;;;;;;;8.38;1.65;;;13.30;99.90;;;;;;5021298;28;20044;-68
2022/07/15 02:43:14;;;;;;;7.53;1.80;;;13.30;99.90;;;;;;5020224;28;20033;-68
2022/07/15 02:45:40;;;;;;;6.95;1.60;;;13.20;99.90;;;;;;5036503;28;20469;-68
2022/07/15 02:48:05;;;;;;;4.05;1.50;;;13.20;99.90;;;;;;5020473;28;20033;-68
2022/07/15 02:50:32;;;;;;;8.35;1.38;;;13.10;99.90;;;;;;5028658;28;20418;-68
2022/07/15 02:52:58;;;;;;;7.53;2.67;;;13.10;99.90;;;;;;5019338;28;20036;-68
2022/07/15 02:55:23;;;;;;;7.63;1.52;;;13.10;99.90;;;;;;5034595;28;20091;-68
2022/07/15 02:57:49;;;;;;;6.97;1.80;;;13.00;99.90;;;;;;5020159;28;20045;-68
2022/07/15 03:00:17;;;;;;;7.38;1.55;;;12.90;99.90;;;;;;5036208;28;20029;-68
2022/07/15 03:02:44;;;;;;;4.68;1.35;;;12.90;99.90;;;;;;5025926;28;20396;-69
2022/07/15 03:05:11;;;;;;;7.25;1.70;;;12.90;99.90;;;;;;5020804;28;20401;-68
2022/07/15 03:07:37;;;;;;;6.57;1.75;;;13.00;99.90;;;;;;5034634;28;20048;-67
2022/07/15 03:10:04;;;;;;;6.80;1.85;;;13.00;99.90;;;;;;5048740;28;20037;-68
2022/07/15 03:12:30;;;;;;;5.75;1.48;;;13.00;99.90;;;;;;5020046;28;20029;-68
2022/07/15 03:14:56;;;;;;;5.65;1.92;;;13.00;99.90;;;;;;5036995;28;20063;-68
2022/07/15 03:17:22;;;;;;;5.43;1.63;;;13.00;99.90;;;;;;5036942;28;20037;-68
2022/07/15 03:19:47;;;;;;;5.40;1.50;;;13.00;99.90;;;;;;5037299;28;20072;-67
2022/07/15 03:22:13;;;;;;;7.03;1.65;;;12.90;99.90;;;;;;5038169;28;20040;-68
2022/07/15 03:24:38;;;;;;;7.28;1.70;;;12.90;99.90;;;;;;5019463;28;20041;-68
2022/07/15 03:27:04;;;;;;;7.03;1.70;;;12.90;99.90;;;;;;5036635;28;20132;-68
2022/07/15 03:29:29;;;;;;;7.20;1.77;;;12.90;99.90;;;;;;5020202;28;20083;-68
2022/07/15 03:31:56;;;;;;;6.22;1.60;;;12.90;99.90;;;;;;5034409;28;20417;-68
2022/07/15 03:34:21;;;;;;;8.50;1.60;;;12.80;99.90;;;;;;5032552;28;20037;-68
2022/07/15 03:36:47;;;;;;;7.45;2.30;;;12.80;99.90;;;;;;5019356;28;20540;-68
2022/07/15 03:39:13;;;;;;;4.70;1.48;;;12.80;99.90;;;;;;5020061;28;20119;-68
2022/07/15 03:41:38;;;;;;;6.57;1.90;;;12.80;99.90;;;;;;5007506;28;20048;-68
2022/07/15 03:44:05;;;;;;;5.45;1.60;;;12.70;99.90;;;;;;5021338;28;20486;-68
2022/07/15 03:46:30;;;;;;;5.50;1.58;;;12.70;99.90;;;;;;5016637;28;20041;-68
2022/07/15 03:48:56;;;;;;;8.10;1.80;;;12.70;99.90;;;;;;5016618;28;20052;-68
2022/07/15 03:51:30;;;;;;;5.70;1.50;;;12.70;99.90;;;;;;5020519;28;20041;-68
2022/07/15 03:54:02;;;;;;;7.43;2.42;;;12.70;99.90;;;;;;5031076;28;20041;-68
2022/07/15 03:56:29;;;;;;;4.82;1.65;;;12.70;99.90;;;;;;5000261;28;20045;-68
2022/07/15 03:58:54;;;;;;;6.80;1.80;;;12.70;99.90;;;;;;5016236;28;20037;-68
2022/07/15 04:01:21;;;;;;;5.50;1.30;;;12.70;99.90;;;;;;5019457;28;20041;-68
2022/07/15 04:03:51;;;;;;;5.32;1.50;;;12.70;99.90;;;;;;5035974;28;20041;-68
2022/07/15 04:06:18;;;;;;;6.72;1.60;;;12.70;99.90;;;;;;5018554;28;20040;-68
2022/07/15 04:08:44;;;;;;;4.47;1.45;;;12.70;99.90;;;;;;5044980;28;20040;-68
2022/07/15 04:11:10;;;;;;;6.00;1.50;;;12.60;99.90;;;;;;5020668;28;20122;-68
2022/07/15 04:13:37;;;;;;;5.25;1.48;;;12.70;99.90;;;;;;5035992;28;20572;-68
2022/07/15 04:16:03;;;;;;;10.02;2.10;;;12.70;99.90;;;;;;5035751;28;20059;-68
2022/07/15 04:18:28;;;;;;;6.57;1.75;;;12.70;99.90;;;;;;5019377;28;20045;-68
2022/07/15 04:20:54;;;;;;;5.82;1.77;;;12.80;99.90;;;;;;5035758;28;20040;-68
2022/07/15 04:23:19;;;;;;;6.93;1.70;;;12.80;99.90;;;;;;5018985;28;20448;-68
2022/07/15 04:25:45;;;;;;;8.55;1.75;;;12.80;99.90;;;;;;5035523;28;20055;-68
2022/07/15 04:28:11;;;;;;;9.60;1.83;;;12.80;99.90;;;;;;5034849;28;20052;-68
2022/07/15 04:30:36;;;;;;;6.53;1.58;;;12.80;99.90;;;;;;5018757;28;20135;-68
2022/07/15 04:33:02;;;;;;;5.07;1.52;;;12.80;99.90;;;;;;5035524;28;20044;-68
2022/07/15 04:35:28;;;;;;;4.97;1.52;;;12.90;99.90;;;;;;5034895;28;20053;-68
2022/07/15 04:37:53;;;;;;;5.25;1.30;;;12.80;99.90;;;;;;5045414;28;20040;-68
2022/07/15 04:40:19;;;;;;;5.93;1.35;;;12.80;99.90;;;;;;5035456;28;20123;-68
2022/07/15 04:42:45;;;;;;;4.00;1.10;;;12.80;99.90;;;;;;5028274;28;20033;-68
2022/07/15 04:45:11;;;;;;;5.97;1.33;;;12.80;99.90;;;;;;5020282;28;20170;-68
2022/07/15 04:47:36;;;;;;;6.80;1.35;;;12.80;99.90;;;;;;5018781;28;20041;-68
2022/07/15 04:52:47;;;;;;;5.53;1.30;;;12.90;99.90;;;;;;5035170;28;20041;-68
2022/07/15 04:55:14;;;;;;;6.15;1.63;;;12.90;99.90;;;;;;5035183;28;20120;-67
2022/07/15 04:57:40;;;;;;;7.13;1.50;;;12.90;99.90;;;;;;5035085;28;20114;-68
2022/07/15 05:00:06;;;;;;;4.45;1.00;;;12.90;99.90;;;;;;5035021;28;20052;-68
2022/07/15 05:02:32;;;;;;;8.85;1.30;;;12.90;99.90;;;;;;5018526;28;20052;-67
2022/07/15 05:04:58;;;;;;;5.18;1.20;;;13.00;99.90;;;;;;5019041;28;20041;-68
2022/07/15 05:07:24;;;;;;;6.72;1.30;;;13.00;99.90;;;;;;5023727;28;20482;-67
2022/07/15 05:09:49;;;;;;;5.32;1.65;;;13.10;99.90;;;;;;5044995;28;20037;-68
2022/07/15 05:12:15;;;;;;;7.90;1.23;;;13.10;99.90;;;;;;5035288;28;20037;-68
2022/07/15 05:14:41;;;;;;;5.10;1.33;;;13.10;99.90;;;;;;5043925;28;20488;-68
2022/07/15 05:17:07;;;;;;;5.25;1.20;;;13.20;99.90;;;;;;5051489;28;20039;-68
2022/07/15 05:19:33;;;;;;;6.18;1.15;;;13.20;99.90;;;;;;5034981;28;20044;-68
2022/07/15 05:21:59;;;;;;;5.35;1.35;;;13.20;99.90;;;;;;5035051;28;20386;-68
2022/07/15 05:24:25;;;;;;;5.38;1.30;;;13.20;99.90;;;;;;5035042;28;20037;-68
2022/07/15 05:26:51;;;;;;;6.05;1.30;;;13.30;99.90;;;;;;5034674;28;20040;-68
2022/07/15 05:29:16;;;;;;;3.58;1.10;;;13.30;99.90;;;;;;5035010;28;20040;-67
2022/07/15 05:31:42;;;;;;;3.67;1.23;;;13.30;99.90;;;;;;5021320;28;20659;-67
2022/07/15 05:34:08;;;;;;;5.72;1.13;;;13.30;99.90;;;;;;5048598;28;20448;-67
2022/07/15 05:36:35;;;;;;;6.30;1.27;;;13.30;99.90;;;;;;5013758;28;20052;-73
2022/07/15 05:39:01;;;;;;;4.05;1.00;;;13.40;99.90;;;;;;5034198;28;20131;-74
2022/07/15 05:41:27;;;;;;;2.45;1.00;;;13.60;99.90;;;;;;5032506;28;20045;-73
2022/07/15 05:43:52;;;;;;;4.55;0.90;;;13.80;99.90;;;;;;5034009;28;20129;-74
2022/07/15 05:46:18;;;;;;;6.25;1.20;;;13.90;99.90;;;;;;5034237;28;20045;-73
2022/07/15 05:48:43;;;;;;;5.25;0.90;;;14.00;99.90;;;;;;5033995;28;20029;-71
2022/07/15 05:51:09;;;;;;;4.90;1.90;;;14.10;99.90;;;;;;5034207;28;20037;-67
2022/07/15 05:53:34;;;;;;;5.00;1.35;;;14.10;99.90;;;;;;5035062;28;20454;-67
2022/07/15 05:56:00;;;;;;;7.07;1.55;;;14.10;99.90;;;;;;5017788;28;20072;-68
2022/07/15 05:58:26;;;;;;;5.75;1.08;;;14.10;99.90;;;;;;5034532;28;20152;-67
2022/07/15 06:00:52;;;;;;;7.47;1.10;;;14.10;99.90;;;;;;5020552;28;20497;-67
2022/07/15 06:03:18;;;;;;;5.60;1.08;;;14.10;99.90;;;;;;5037778;28;20551;-67
2022/07/15 06:05:44;;;;;;;6.07;1.08;;;14.10;99.90;;;;;;5021118;28;20036;-67
2022/07/15 06:08:10;;;;;;;5.32;1.02;;;14.20;99.90;;;;;;5045287;28;20029;-67
2022/07/15 06:10:36;;;;;;;2.88;0.80;;;14.30;99.90;;;;;;5021224;28;20040;-67
2022/07/15 06:13:02;;;;;;;4.65;0.80;;;14.30;99.90;;;;;;5021354;28;20037;-67
2022/07/15 06:15:28;;;;;;;5.57;1.58;;;14.40;99.90;;;;;;5037761;28;20508;-67
2022/07/15 06:17:53;;;;;;;3.75;0.95;;;14.40;99.90;;;;;;5036854;28;20047;-68
2022/07/15 06:20:19;;;;;;;3.65;0.85;;;14.50;99.90;;;;;;5037518;28;20044;-67
2022/07/15 06:22:45;;;;;;;2.97;0.95;;;14.60;99.90;;;;;;5019689;28;20102;-67
2022/07/15 06:25:11;;;;;;;4.55;1.00;;;14.60;99.90;;;;;;5036784;28;20041;-67
2022/07/15 06:27:37;;;;;;;5.00;0.90;;;14.70;99.90;;;;;;5031528;28;20394;-67
2022/07/15 06:30:04;;;;;;;6.70;0.88;;;14.70;99.90;;;;;;5031679;28;20037;-67
2022/07/15 06:32:29;;;;;;;4.38;0.93;;;14.80;99.90;;;;;;5029769;28;20053;-68
2022/07/15 06:34:55;;;;;;;4.68;1.00;;;14.90;99.90;;;;;;5036121;28;20402;-68
2022/07/15 06:37:21;;;;;;;3.63;0.85;;;15.00;99.90;;;;;;5020092;28;20041;-68
2022/07/15 06:39:47;;;;;;;2.80;0.80;;;15.00;99.90;;;;;;5031543;28;20099;-67
2022/07/15 06:42:13;;;;;;;5.07;0.90;;;15.10;99.90;;;;;;5036017;28;20079;-67
2022/07/15 06:44:38;;;;;;;7.35;1.42;;;15.10;99.90;;;;;;5036224;28;20037;-68
2022/07/15 06:47:06;;;;;;;3.63;0.95;;;15.20;99.90;;;;;;5035904;28;20076;-68
2022/07/15 06:49:34;;;;;;;2.25;0.70;;;15.20;99.90;;;;;;5029839;28;20120;-68
2022/07/15 06:52:00;;;;;;;4.03;0.90;;;15.20;99.90;;;;;;5035979;28;20456;-68
2022/07/15 06:54:25;;;;;;;1.55;0.80;;;15.10;99.90;;;;;;5036460;28;20501;-68
2022/07/15 06:56:51;;;;;;;3.17;0.80;;;15.20;99.90;;;;;;5018221;28;20068;-67
2022/07/15 06:59:16;;;;;;;1.52;0.70;;;15.30;99.90;;;;;;5019256;28;20037;-68
2022/07/15 07:01:42;;;;;;;3.40;0.80;;;15.50;99.90;;;;;;5048751;28;20120;-67
2022/07/15 07:04:07;;;;;;;2.92;0.85;;;15.70;99.90;;;;;;5037018;28;20055;-68
2022/07/15 07:06:33;;;;;;;3.95;0.70;;;15.90;99.90;;;;;;5035727;28;20049;-67
2022/07/15 07:08:59;;;;;;;4.38;0.80;;;16.00;99.90;;;;;;5032542;28;20405;-68
2022/07/15 07:11:25;;;;;;;3.22;1.00;;;16.20;99.90;;;;;;5015746;28;20073;-67
2022/07/15 07:13:51;;;;;;;4.60;0.80;;;16.30;99.90;;;;;;5011718;28;20037;-68
2022/07/15 07:16:17;;;;;;;1.83;0.70;;;16.40;99.90;;;;;;5018154;28;20045;-68
2022/07/15 07:18:45;;;;;;;5.03;0.77;;;16.40;99.90;;;;;;5037505;28;20064;-68
2022/07/15 07:21:12;;;;;;;3.03;0.65;;;16.40;99.90;;;;;;5036444;28;20048;-68
2022/07/15 07:23:39;;;;;;;3.78;1.00;;;16.40;99.90;;;;;;5035722;28;20480;-68
2022/07/15 07:26:06;;;;;;;3.20;0.80;;;16.50;99.90;;;;;;5015800;28;20099;-68
2022/07/15 07:28:32;;;;;;;3.97;0.70;;;16.50;99.90;;;;;;5033223;28;20410;-68
2022/07/15 07:30:59;;;;;;;4.78;0.93;;;16.60;99.90;;;;;;5034636;28;20510;-68
2022/07/15 07:33:25;;;;;;;4.93;0.98;;;16.80;99.90;;;;;;5016794;28;20083;-72
2022/07/15 07:35:51;;;;;;;4.18;0.60;;;16.80;99.90;;;;;;5036291;28;20045;-71
2022/07/15 07:38:17;;;;;;;3.97;0.80;;;16.90;99.90;;;;;;5019512;28;20056;-71
2022/07/15 07:40:44;;;;;;;2.65;0.70;;;16.90;99.90;;;;;;5036400;28;20040;-72
2022/07/15 07:43:10;;;;;;;4.47;0.57;;;16.90;99.90;;;;;;5019614;28;20064;-72
2022/07/15 07:45:35;;;;;;;3.08;0.52;;;16.90;99.90;;;;;;5036030;28;20503;-71
2022/07/15 07:48:01;;;;;;;2.00;0.60;;;16.80;99.90;;;;;;5019493;28;20040;-71
2022/07/15 07:50:27;;;;;;;3.28;0.70;;;16.90;99.90;;;;;;5019103;28;20041;-71
2022/07/15 07:52:53;;;;;;;7.78;1.70;;;16.90;99.90;;;;;;5035860;28;20144;-71
2022/07/15 07:55:19;;;;;;;2.25;0.60;;;16.90;99.90;;;;;;5019549;28;20325;-67
2022/07/15 07:57:53;;;;;;;3.22;0.60;;;17.00;99.90;;;;;;5019563;28;20443;-67
2022/07/15 08:00:19;;;;;;;3.47;0.63;;;17.10;99.90;;;;;;5032738;28;20489;-68
2022/07/15 08:02:45;;;;;;;7.05;1.33;;;17.30;99.90;;;;;;5029480;28;20044;-67
2022/07/15 08:05:15;;;;;;;3.17;0.70;;;17.50;99.90;;;;;;5018551;28;20068;-68
2022/07/15 08:07:41;;;;;;;3.80;0.63;;;17.70;99.90;;;;;;5035533;28;20047;-68
2022/07/15 08:10:08;;;;;;;1.42;0.60;;;17.70;99.90;;;;;;5012844;28;20128;-67
2022/07/15 08:12:36;;;;;;;3.50;0.80;;;17.70;99.90;;;;;;5010908;28;20043;-68
2022/07/15 08:15:02;;;;;;;6.45;0.80;;;17.40;99.90;;;;;;5018692;28;20555;-68
2022/07/15 08:17:27;;;;;;;3.03;0.60;;;17.40;99.90;;;;;;5034790;28;20044;-68
2022/07/15 08:19:54;;;;;;;2.38;0.60;;;17.10;99.90;;;;;;5034753;28;20102;-68
2022/07/15 08:22:20;;;;;;;2.40;0.50;;;17.00;99.90;;;;;;5023914;28;20401;-68
2022/07/15 08:24:45;;;;;;;4.40;0.80;;;16.80;99.90;;;;;;5017479;28;20106;-68
2022/07/15 08:27:11;;;;;;;3.03;0.68;;;16.90;99.90;;;;;;5023842;28;20413;-67
2022/07/15 08:29:38;;;;;;;3.63;0.65;;;16.80;99.90;;;;;;5034139;28;20040;-67
2022/07/15 08:32:04;;;;;;;1.75;0.55;;;16.80;99.90;;;;;;5030689;28;20502;-68
2022/07/15 08:34:30;;;;;;;4.22;0.80;;;16.90;99.90;;;;;;4999819;28;20128;-68
2022/07/15 08:36:56;;;;;;;2.35;0.55;;;16.80;99.90;;;;;;5032875;28;20160;-68
2022/07/15 08:39:22;;;;;;;2.58;0.57;;;16.90;99.90;;;;;;5033552;28;20057;-68
2022/07/15 08:41:48;;;;;;;2.05;0.45;;;17.00;99.90;;;;;;5028650;28;20044;-68
2022/07/15 08:44:14;;;;;;;4.13;0.90;;;17.10;99.90;;;;;;5018162;28;20072;-68
2022/07/15 08:46:44;;;;;;;4.53;0.60;;;17.20;99.90;;;;;;5018779;28;20072;-68
2022/07/15 08:49:16;;;;;;;6.13;0.88;;;17.10;99.90;;;;;;5033319;28;20041;-67
2022/07/15 08:51:47;;;;;;;2.88;0.68;;;17.10;99.90;;;;;;5034648;28;20497;-68
2022/07/15 08:54:14;;;;;;;2.58;0.60;;;17.10;99.90;;;;;;5031103;28;20077;-68
2022/07/15 08:56:42;;;;;;;5.00;0.70;;;17.00;99.90;;;;;;5035008;28;20043;-68
2022/07/15 08:59:08;;;;;;;3.83;0.80;;;16.90;99.90;;;;;;5014422;28;20041;-68
2022/07/15 09:01:42;;;;;;;5.90;0.70;;;16.90;99.90;;;;;;5009280;28;20547;-67
2022/07/15 09:04:07;;;;;;;1.95;0.52;;;16.80;99.90;;;;;;5007834;28;20482;-67
2022/07/15 09:06:37;;;;;;;1.83;0.52;;;16.70;99.90;;;;;;5035359;28;20052;-68
2022/07/15 09:09:22;;;;;;;5.20;0.73;;;16.60;99.90;;;;;;5029409;28;20033;-67
2022/07/15 09:11:57;;;;;;;4.18;0.70;;;16.50;99.90;;;;;;5025392;28;20032;-68
2022/07/15 09:14:29;;;;;;;2.05;0.70;;;16.50;99.90;;;;;;5016185;28;20033;-68
2022/07/15 09:17:22;;;;;;;3.45;0.80;;;16.60;99.90;;;;;;5034128;28;20044;-67
2022/07/15 09:20:09;;;;;;;3.90;0.90;;;16.70;99.90;;;;;;5015687;28;20079;-68
2022/07/15 09:22:48;;;;;;;3.58;0.75;;;16.80;99.90;;;;;;5023175;28;20041;-68
2022/07/15 09:25:14;;;;;;;1.50;0.70;;;17.20;99.90;;;;;;5033630;28;20041;-68
2022/07/15 09:27:41;;;;;;;4.20;0.60;;;17.30;99.90;;;;;;5015259;28;20044;-68
2022/07/15 09:36:12;;;;;;;2.15;0.55;;;17.40;99.90;;;;;;5016999;28;20045;-68
2022/07/15 09:38:53;;;;;;;2.45;0.65;;;17.40;99.90;;;;;;5020940;28;20040;-68
2022/07/15 09:41:42;;;;;;;2.92;0.60;;;17.40;99.90;;;;;;5037291;28;20455;-68
2022/07/15 09:44:10;;;;;;;4.38;0.63;;;17.40;99.90;;;;;;5019114;28;20485;-68
2022/07/15 09:46:43;;;;;;;6.28;0.88;;;17.40;99.90;;;;;;5035589;28;20052;-68
2022/07/15 09:49:14;;;;;;;2.25;0.50;;;17.40;99.90;;;;;;5035888;28;20037;-68
2022/07/15 09:51:48;;;;;;;2.60;0.57;;;17.30;99.90;;;;;;5019173;28;20040;-68
2022/07/15 09:54:14;;;;;;;3.72;0.65;;;17.40;99.90;;;;;;5034401;28;20120;-68
2022/07/15 09:56:40;;;;;;;1.83;0.70;;;17.40;99.90;;;;;;5036574;28;20148;-67
2022/07/15 09:59:06;;;;;;;3.55;0.65;;;17.50;99.90;;;;;;5036015;28;20524;-67
2022/07/15 10:01:32;;;;;;;3.15;0.50;;;17.60;99.90;;;;;;5035576;28;20120;-73
2022/07/15 10:04:00;;;;;;;5.28;0.95;;;18.00;99.90;;;;;;5018814;28;20116;-73
2022/07/15 10:06:27;;;;;;;1.30;0.60;;;18.30;99.90;;;;;;5034368;28;20367;-73
2022/07/15 10:08:54;;;;;;;1.85;0.60;;;18.40;99.90;;;;;;5021950;28;20037;-73
2022/07/15 10:11:20;;;;;;;2.97;0.82;;;18.50;99.90;;;;;;5038094;28;20079;-73
2022/07/15 10:14:05;;;;;;;3.15;0.68;;;18.50;99.90;;;;;;5037490;28;20077;-72
2022/07/15 10:16:45;;;;;;;1.55;0.57;;;18.50;99.90;;;;;;5036885;28;20086;-73
2022/07/15 10:19:26;;;;;;;1.75;0.52;;;18.40;99.90;;;;;;5053914;28;20507;-73
2022/07/15 10:22:07;;;;;;;2.70;0.57;;;18.40;99.90;;;;;;5031130;28;20038;-73
2022/07/15 10:24:59;;;;;;;1.50;0.60;;;18.40;99.90;;;;;;5020578;28;20087;-73
2022/07/15 10:27:46;;;;;;;2.42;0.60;;;18.60;99.90;;;;;;5031200;28;20107;-73
2022/07/15 10:30:12;;;;;;;2.95;0.60;;;18.60;99.90;;;;;;5035491;28;20110;-74
2022/07/15 10:33:02;;;;;;;2.13;0.50;;;18.70;99.90;;;;;;5015914;28;20085;-74
2022/07/15 10:35:43;;;;;;;1.75;0.50;;;18.80;99.90;;;;;;5018366;28;20382;-73
2022/07/15 10:38:27;;;;;;;1.65;0.40;;;19.00;99.90;;;;;;5033829;28;20443;-73
2022/07/15 10:41:14;;;;;;;3.30;0.50;;;19.00;99.90;;;;;;5028446;28;20124;-73
2022/07/15 10:43:49;;;;;;;2.85;0.70;;;19.00;99.90;;;;;;5030054;28;20045;-73
2022/07/15 10:46:18;;;;;;;1.10;0.60;;;19.00;99.90;;;;;;5018268;28;20044;-73
2022/07/15 10:48:44;;;;;;;3.92;0.88;;;19.10;99.90;;;;;;5037238;28;20385;-73
2022/07/15 10:51:09;;;;;;;2.20;0.60;;;19.30;99.90;;;;;;5047724;28;20041;-73
2022/07/15 10:53:47;;;;;;;2.63;0.60;;;19.50;99.90;;;;;;5020046;28;20378;-73
2022/07/15 10:56:34;;;;;;;0.90;0.52;;;19.80;99.90;;;;;;5016209;28;20500;-73
2022/07/15 10:59:15;;;;;;;5.15;0.70;;;20.00;99.90;;;;;;5031961;28;20048;-74
2022/07/15 11:01:46;;;;;;;2.05;0.50;;;20.10;99.90;;;;;;5017051;28;20037;-73
2022/07/15 11:04:26;;;;;;;1.73;0.40;;;19.90;99.90;;;;;;5031797;28;20470;-73
2022/07/15 11:07:06;;;;;;;1.90;0.63;;;19.60;99.90;;;;;;5024237;28;20040;-74
2022/07/15 11:09:54;;;;;;;3.67;0.70;;;19.30;99.90;;;;;;5034604;28;20053;-73
2022/07/15 11:12:44;;;;;;;3.08;0.70;;;19.00;99.90;;;;;;5033990;28;20078;-73
2022/07/15 11:15:17;;;;;;;4.32;0.77;;;18.80;99.90;;;;;;5016949;28;20103;-73
2022/07/15 11:17:49;;;;;;;2.67;0.60;;;18.60;99.90;;;;;;5013982;28;20076;-73
2022/07/15 11:20:20;;;;;;;3.88;0.68;;;18.60;99.90;;;;;;5033851;28;20044;-73
2022/07/15 11:22:48;;;;;;;1.67;0.50;;;18.60;99.90;;;;;;5034588;28;20052;-73
2022/07/15 11:25:20;;;;;;;2.55;0.60;;;18.50;99.90;;;;;;5034619;28;20489;-73
2022/07/15 11:28:00;;;;;;;2.05;0.50;;;18.50;99.90;;;;;;5018457;28;20052;-73
2022/07/15 11:30:28;;;;;;;4.10;0.93;;;18.50;99.90;;;;;;5035311;28;20623;-73
2022/07/15 11:32:59;;;;;;;3.15;0.70;;;18.40;99.90;;;;;;5018409;28;20409;-73
2022/07/15 11:35:26;;;;;;;2.33;0.60;;;18.50;99.90;;;;;;5014466;28;20547;-73
2022/07/15 11:38:00;;;;;;;4.38;0.70;;;18.50;99.90;;;;;;5018596;28;20119;-73
2022/07/15 11:46:07;;;;;;;2.50;0.68;;;18.50;99.90;;;;;;5034109;28;19920;-73
2022/07/15 11:48:35;;;;;;;1.13;0.55;;;18.70;99.90;;;;;;5034777;28;20032;-73
2022/07/15 11:51:01;;;;;;;2.28;0.70;;;18.80;99.90;;;;;;5018524;28;20036;-73
2022/07/15 11:53:27;;;;;;;2.53;0.50;;;19.00;99.90;;;;;;5034630;28;20033;-73
2022/07/15 11:55:56;;;;;;;2.05;0.50;;;19.00;99.90;;;;;;5035513;28;20489;-73
2022/07/15 11:58:56;;;;;;;1.52;0.60;;;19.00;99.90;;;;;;5014928;28;20041;-73
2022/07/15 12:01:24;;;;;;;3.25;0.60;;;19.30;99.90;;;;;;4990916;28;20135;-73
2022/07/15 12:03:52;;;;;;;1.67;0.45;;;19.40;99.90;;;;;;5016104;28;20124;-73
2022/07/15 12:06:20;;;;;;;3.05;0.70;;;19.50;99.90;;;;;;5017788;28;20051;-73
2022/07/15 12:08:47;;;;;;;2.67;0.57;;;19.60;99.90;;;;;;5017989;28;20442;-73
2022/07/15 12:11:18;;;;;;;13.98;1.40;;;19.60;99.90;;;;;;5018038;28;20048;-73
2022/07/15 12:13:49;;;;;;;5.47;1.05;;;19.60;99.90;;;;;;5028828;28;20076;-73
2022/07/15 12:16:19;;;;;;;2.42;0.60;;;19.50;99.90;;;;;;5034099;28;20374;-74
2022/07/15 12:18:46;;;;;;;2.97;0.60;;;19.40;99.90;;;;;;5033243;28;20045;-73
2022/07/15 12:21:11;;;;;;;1.88;0.47;;;19.50;99.90;;;;;;5032625;28;20459;-73
2022/07/15 12:23:37;;;;;;;4.07;0.60;;;19.50;99.90;;;;;;5034574;28;20128;-73
2022/07/15 12:26:09;;;;;;;2.20;0.65;;;19.40;99.90;;;;;;5018654;28;20057;-73
2022/07/15 12:28:36;;;;;;;1.98;0.47;;;19.50;99.90;;;;;;5017722;28;20033;-73
2022/07/15 12:31:04;;;;;;;4.38;0.75;;;19.40;99.90;;;;;;5025404;28;20085;-74
2022/07/15 12:33:35;;;;;;;3.35;0.60;;;19.40;99.90;;;;;;5017322;28;20034;-73
2022/07/15 12:36:19;;;;;;;2.55;0.70;;;19.30;99.90;;;;;;5029541;28;20040;-73
2022/07/15 12:38:45;;;;;;;1.40;0.57;;;19.20;99.90;;;;;;5033578;28;20461;-73
2022/07/15 12:41:24;;;;;;;3.53;0.60;;;19.20;99.90;;;;;;5031808;28;20083;-73
2022/07/15 12:43:52;;;;;;;2.88;0.50;;;19.30;99.90;;;;;;5034730;28;20048;-73
2022/07/15 12:46:19;;;;;;;1.20;0.60;;;19.40;99.90;;;;;;5015723;28;20497;-72
2022/07/15 12:48:47;;;;;;;1.65;0.50;;;19.60;99.90;;;;;;5031226;28;20493;-72
2022/07/15 12:51:14;;;;;;;1.73;0.55;;;19.70;99.90;;;;;;5032614;28;20119;-72
2022/07/15 12:53:40;;;;;;;1.13;0.45;;;19.70;99.90;;;;;;5034352;28;20049;-72
2022/07/15 12:56:06;;;;;;;2.97;0.52;;;19.70;99.90;;;;;;5011669;28;20037;-72
2022/07/15 12:58:35;;;;;;;3.25;0.88;;;19.70;99.90;;;;;;5010734;28;20514;-72
2022/07/15 13:01:04;;;;;;;4.00;0.82;;;19.70;99.90;;;;;;5014733;28;20104;-72
2022/07/15 13:03:29;;;;;;;3.08;0.70;;;19.70;99.90;;;;;;5016461;28;20068;-72
2022/07/15 13:05:55;;;;;;;2.00;0.60;;;19.80;99.90;;;;;;5017589;28;20049;-72
2022/07/15 13:08:26;;;;;;;2.50;0.60;;;19.80;99.90;;;;;;5032942;28;20421;-72